Time;durP1;ratioP1;P1;durP2;ratioP2;P2;SDS_P1;SDS_P2;PMS_P1;PMS_P2;Temp;Humidity;BMP_temperature;BMP_pressure;BME280_temperature;BME280_humidity;BME280_pressure;Samples;Min_cycle;Max_cycle;Signal;HPM_P1;HPM_P2
2021/07/20 00:00:07;;;;;;;12.10;7.00;;;15.40;99.90;;;;;;5058413;28;20234;-71
2021/07/20 00:02:36;;;;;;;14.63;6.78;;;15.40;99.90;;;;;;5064134;28;20248;-71
2021/07/20 00:05:07;;;;;;;14.10;6.70;;;15.50;99.90;;;;;;5064550;28;20210;-71
2021/07/20 00:07:34;;;;;;;12.83;6.83;;;15.60;99.90;;;;;;5063371;28;20219;-71
2021/07/20 00:10:02;;;;;;;12.87;6.57;;;15.50;99.90;;;;;;5065016;28;20198;-71
2021/07/20 00:12:29;;;;;;;11.57;6.53;;;15.60;99.90;;;;;;5066329;28;20255;-71
2021/07/20 00:14:56;;;;;;;10.77;6.70;;;15.40;99.90;;;;;;5070498;28;20465;-71
2021/07/20 00:17:23;;;;;;;12.00;6.97;;;15.50;99.90;;;;;;5062715;28;20248;-71
2021/07/20 00:19:50;;;;;;;13.27;7.43;;;15.40;99.90;;;;;;5061098;28;20202;-71
2021/07/20 00:22:19;;;;;;;12.77;7.00;;;15.50;99.90;;;;;;5060549;28;20238;-71
2021/07/20 00:24:46;;;;;;;11.43;7.13;;;15.50;99.90;;;;;;5063076;28;20198;-71
2021/07/20 00:27:13;;;;;;;13.55;7.45;;;15.60;99.90;;;;;;5062377;28;20227;-71
2021/07/20 00:29:41;;;;;;;11.70;6.90;;;15.50;99.90;;;;;;5066900;28;20276;-71
2021/07/20 00:32:09;;;;;;;11.40;6.73;;;15.60;99.90;;;;;;5060438;28;20206;-71
2021/07/20 00:34:38;;;;;;;11.63;6.80;;;15.60;99.90;;;;;;5063028;28;20238;-71
2021/07/20 00:37:06;;;;;;;12.50;7.00;;;15.50;99.90;;;;;;5063386;28;20818;-70
2021/07/20 00:39:34;;;;;;;11.70;6.70;;;15.40;99.90;;;;;;5060269;28;20685;-71
2021/07/20 00:42:02;;;;;;;12.87;7.23;;;15.40;99.90;;;;;;5057195;28;20234;-71
2021/07/20 00:44:29;;;;;;;11.67;6.80;;;15.40;99.90;;;;;;5060142;28;20207;-71
2021/07/20 00:46:56;;;;;;;11.30;6.50;;;15.40;99.90;;;;;;5063179;28;20195;-71
2021/07/20 00:49:23;;;;;;;10.63;6.70;;;15.40;99.90;;;;;;5065697;28;20424;-71
2021/07/20 00:51:50;;;;;;;12.93;6.40;;;15.50;99.90;;;;;;5062785;28;20619;-71
2021/07/20 00:54:17;;;;;;;13.67;7.40;;;15.60;99.90;;;;;;5068665;28;20580;-71
2021/07/20 00:56:46;;;;;;;11.10;6.20;;;15.40;99.90;;;;;;5071459;28;20267;-71
2021/07/20 00:59:14;;;;;;;13.07;6.90;;;15.40;99.90;;;;;;5065303;28;20280;-71
2021/07/20 01:01:41;;;;;;;11.97;6.73;;;15.40;99.90;;;;;;5066537;28;20265;-71
2021/07/20 01:04:08;;;;;;;11.33;6.60;;;15.40;99.90;;;;;;5065744;28;20238;-70
2021/07/20 01:06:36;;;;;;;11.17;7.23;;;15.30;99.90;;;;;;5061837;28;20840;-71
2021/07/20 01:09:05;;;;;;;12.50;7.03;;;15.30;99.90;;;;;;5061425;28;20230;-71
2021/07/20 01:11:34;;;;;;;12.20;7.50;;;15.10;99.90;;;;;;5068125;28;20207;-71
2021/07/20 01:14:04;;;;;;;14.07;6.75;;;15.20;99.90;;;;;;5070853;28;20264;-71
2021/07/20 01:16:33;;;;;;;12.27;7.17;;;15.30;99.90;;;;;;5062600;28;20201;-71
2021/07/20 01:19:00;;;;;;;11.38;6.68;;;15.30;99.90;;;;;;5070224;28;20206;-71
2021/07/20 01:21:28;;;;;;;15.13;6.60;;;15.30;99.90;;;;;;5067818;28;20202;-69
2021/07/20 01:23:57;;;;;;;14.85;6.72;;;15.30;99.90;;;;;;5061070;28;20569;-71
2021/07/20 01:26:25;;;;;;;13.43;6.93;;;15.20;99.90;;;;;;5057798;28;20298;-69
2021/07/20 01:28:54;;;;;;;15.13;7.07;;;15.30;99.90;;;;;;5051224;28;20672;-69
2021/07/20 01:31:25;;;;;;;11.80;6.63;;;15.30;99.90;;;;;;5070459;28;20229;-69
2021/07/20 01:33:55;;;;;;;9.80;6.10;;;15.40;99.90;;;;;;5071636;28;20872;-69
2021/07/20 01:36:23;;;;;;;12.03;6.97;;;15.40;99.90;;;;;;5072847;28;20213;-69
2021/07/20 01:38:52;;;;;;;13.53;7.93;;;15.40;99.90;;;;;;5069441;28;20613;-69
2021/07/20 01:41:21;;;;;;;10.70;6.60;;;15.40;99.90;;;;;;5061737;28;20610;-69
2021/07/20 01:43:52;;;;;;;10.33;6.63;;;15.30;99.90;;;;;;5067871;28;20199;-69
2021/07/20 01:46:20;;;;;;;10.37;6.37;;;15.30;99.90;;;;;;5062723;28;20614;-69
2021/07/20 01:48:51;;;;;;;10.80;6.50;;;15.40;99.90;;;;;;5067016;28;20234;-69
2021/07/20 01:51:19;;;;;;;11.77;6.07;;;15.30;99.90;;;;;;5069621;28;20230;-69
2021/07/20 01:53:46;;;;;;;13.77;6.50;;;15.40;99.90;;;;;;5068186;28;20213;-69
2021/07/20 01:56:13;;;;;;;12.60;6.47;;;15.40;99.90;;;;;;5064095;28;20267;-69
2021/07/20 01:58:43;;;;;;;11.20;5.83;;;15.40;99.90;;;;;;5067818;28;20567;-69
2021/07/20 02:01:14;;;;;;;11.57;6.30;;;15.40;99.90;;;;;;5066013;28;20288;-69
2021/07/20 02:09:20;;;;;;;12.03;6.63;;;15.20;99.90;;;;;;5060403;28;20232;-69
2021/07/20 02:11:47;;;;;;;10.70;5.77;;;15.30;99.90;;;;;;5063860;28;20283;-70
2021/07/20 02:14:16;;;;;;;10.17;6.17;;;15.30;99.90;;;;;;5062766;28;20595;-71
2021/07/20 02:16:46;;;;;;;13.45;6.68;;;15.30;99.90;;;;;;5068835;28;20207;-71
2021/07/20 02:19:17;;;;;;;11.03;6.43;;;15.30;99.90;;;;;;5070183;28;20289;-71
2021/07/20 02:21:47;;;;;;;11.48;6.40;;;15.30;99.90;;;;;;5070657;28;20206;-71
2021/07/20 02:24:16;;;;;;;10.37;6.33;;;15.40;99.90;;;;;;5069502;28;20214;-71
2021/07/20 02:26:43;;;;;;;12.03;6.90;;;15.30;99.90;;;;;;5070237;28;20210;-71
2021/07/20 02:29:12;;;;;;;11.93;6.87;;;15.30;99.90;;;;;;5071130;28;20221;-71
2021/07/20 02:31:42;;;;;;;9.75;6.15;;;15.40;99.90;;;;;;5067992;28;20595;-71
2021/07/20 02:34:09;;;;;;;9.87;6.50;;;15.30;99.90;;;;;;5067970;28;20206;-71
2021/07/20 02:36:38;;;;;;;13.90;6.47;;;15.20;99.90;;;;;;5069488;28;20279;-71
2021/07/20 02:39:06;;;;;;;11.57;6.50;;;15.20;99.90;;;;;;5063224;28;20203;-71
2021/07/20 02:41:35;;;;;;;10.23;6.27;;;15.30;99.90;;;;;;5060430;28;20203;-71
2021/07/20 02:44:03;;;;;;;12.73;6.50;;;15.30;99.90;;;;;;5057582;28;20608;-71
2021/07/20 02:46:30;;;;;;;11.10;6.23;;;15.30;99.90;;;;;;5069716;28;20256;-71
2021/07/20 02:49:00;;;;;;;11.20;6.70;;;15.30;99.90;;;;;;5070086;28;20218;-71
2021/07/20 02:51:28;;;;;;;11.10;6.10;;;15.40;99.90;;;;;;5069644;28;20250;-71
2021/07/20 02:53:59;;;;;;;10.53;5.97;;;15.40;99.90;;;;;;5054611;28;20253;-69
2021/07/20 02:56:27;;;;;;;14.82;6.70;;;15.30;99.90;;;;;;5069653;28;20267;-69
2021/07/20 02:58:57;;;;;;;11.07;6.20;;;15.20;99.90;;;;;;5059851;28;20268;-69
2021/07/20 03:01:27;;;;;;;13.13;6.27;;;15.20;99.90;;;;;;5069730;28;20656;-69
2021/07/20 03:03:54;;;;;;;10.47;6.13;;;15.20;99.90;;;;;;5063420;28;20198;-69
2021/07/20 03:06:25;;;;;;;11.63;6.40;;;15.10;99.90;;;;;;5062326;28;20221;-69
2021/07/20 03:08:58;;;;;;;12.17;5.80;;;15.10;99.90;;;;;;5055536;28;20226;-69
2021/07/20 03:11:29;;;;;;;11.80;6.23;;;15.10;99.90;;;;;;5065622;28;20214;-70
2021/07/20 03:14:01;;;;;;;14.23;7.03;;;15.20;99.90;;;;;;5060183;28;20203;-71
2021/07/20 03:16:29;;;;;;;11.77;6.70;;;15.30;99.90;;;;;;5066214;28;20514;-70
2021/07/20 03:18:57;;;;;;;11.37;5.87;;;15.20;99.90;;;;;;5070781;28;20366;-71
2021/07/20 03:21:26;;;;;;;8.83;5.23;;;15.20;99.90;;;;;;5068426;28;20502;-71
2021/07/20 03:23:56;;;;;;;10.27;6.50;;;15.30;99.90;;;;;;5069946;28;20207;-72
2021/07/20 03:26:24;;;;;;;9.60;6.20;;;15.40;99.90;;;;;;5069258;28;20256;-72
2021/07/20 03:28:52;;;;;;;11.70;5.60;;;15.40;99.90;;;;;;5060608;28;20214;-72
2021/07/20 03:31:20;;;;;;;11.33;5.97;;;15.30;99.90;;;;;;5058742;28;20263;-72
2021/07/20 03:33:48;;;;;;;11.33;6.00;;;15.20;99.90;;;;;;5058046;28;20644;-72
2021/07/20 03:36:15;;;;;;;9.27;5.57;;;15.30;99.90;;;;;;5069972;28;20275;-72
2021/07/20 03:38:45;;;;;;;9.53;5.67;;;15.30;99.90;;;;;;5057629;28;20251;-73
2021/07/20 03:41:13;;;;;;;11.20;5.90;;;15.40;99.90;;;;;;5061454;28;20227;-72
2021/07/20 03:43:41;;;;;;;9.73;5.33;;;15.30;99.90;;;;;;5061744;28;20202;-72
2021/07/20 03:46:09;;;;;;;10.30;5.70;;;15.40;99.90;;;;;;5069124;28;20199;-73
2021/07/20 03:48:36;;;;;;;10.47;5.50;;;15.40;99.90;;;;;;5069247;28;20237;-72
2021/07/20 03:51:04;;;;;;;11.17;5.97;;;15.40;99.90;;;;;;5068712;28;20542;-72
2021/07/20 03:53:33;;;;;;;9.17;5.67;;;15.30;99.90;;;;;;5064721;28;20199;-72
2021/07/20 03:56:04;;;;;;;9.53;5.60;;;15.30;99.90;;;;;;5057887;28;20202;-71
2021/07/20 03:58:32;;;;;;;9.90;5.43;;;15.30;99.90;;;;;;5061310;28;20590;-71
2021/07/20 04:01:02;;;;;;;10.67;5.57;;;15.30;99.90;;;;;;5067951;28;20202;-71
2021/07/20 04:03:31;;;;;;;9.80;5.77;;;15.40;99.90;;;;;;5065248;28;20264;-71
2021/07/20 04:06:01;;;;;;;11.63;5.87;;;15.40;99.90;;;;;;5065622;28;20210;-71
2021/07/20 04:08:29;;;;;;;9.40;5.80;;;15.40;99.90;;;;;;5063095;28;20253;-72
2021/07/20 04:10:57;;;;;;;11.10;5.70;;;15.50;99.90;;;;;;5067503;28;20206;-69
2021/07/20 04:13:26;;;;;;;10.70;5.23;;;15.50;99.90;;;;;;5062728;28;20308;-71
2021/07/20 04:15:56;;;;;;;12.97;6.07;;;15.50;99.90;;;;;;5069485;28;20607;-71
2021/07/20 04:18:24;;;;;;;9.27;5.03;;;15.50;99.90;;;;;;5057787;28;20260;-71
2021/07/20 04:20:51;;;;;;;9.10;5.07;;;15.50;99.90;;;;;;5063813;28;20263;-71
2021/07/20 04:23:21;;;;;;;10.70;5.30;;;15.50;99.90;;;;;;5053743;28;20231;-71
2021/07/20 04:25:49;;;;;;;10.43;5.70;;;15.50;99.90;;;;;;5065380;28;20660;-71
2021/07/20 04:28:16;;;;;;;10.73;5.50;;;15.50;99.90;;;;;;5057117;28;20633;-71
2021/07/20 04:30:45;;;;;;;9.23;5.03;;;15.60;99.90;;;;;;5063590;28;20553;-71
2021/07/20 04:33:14;;;;;;;14.35;5.68;;;15.50;99.90;;;;;;5058592;28;20415;-71
2021/07/20 04:35:42;;;;;;;10.07;5.68;;;15.60;99.90;;;;;;5071633;28;20198;-71
2021/07/20 04:38:11;;;;;;;10.60;5.60;;;15.60;99.90;;;;;;5073208;28;20554;-71
2021/07/20 04:40:40;;;;;;;10.60;5.30;;;15.60;99.90;;;;;;5069214;28;20248;-71
2021/07/20 04:43:07;;;;;;;8.82;5.15;;;15.60;99.90;;;;;;5070198;28;20205;-71
2021/07/20 04:45:35;;;;;;;12.03;5.53;;;15.60;99.90;;;;;;5066720;28;20207;-71
2021/07/20 04:48:04;;;;;;;9.15;5.00;;;15.60;99.90;;;;;;5055034;28;20631;-71
2021/07/20 04:50:31;;;;;;;8.57;5.10;;;15.50;99.90;;;;;;5057682;28;20265;-71
2021/07/20 04:52:59;;;;;;;7.95;5.07;;;15.60;99.90;;;;;;5067337;28;20292;-71
2021/07/20 04:55:30;;;;;;;10.35;5.30;;;15.60;99.90;;;;;;5060899;28;20666;-71
2021/07/20 04:57:57;;;;;;;9.73;4.97;;;15.70;99.90;;;;;;5072779;28;20335;-71
2021/07/20 05:00:24;;;;;;;10.93;5.20;;;15.70;99.90;;;;;;5072750;28;20198;-71
2021/07/20 05:02:53;;;;;;;9.47;4.90;;;15.70;99.90;;;;;;5072279;28;20252;-71
2021/07/20 05:05:24;;;;;;;11.07;5.43;;;15.80;99.90;;;;;;5069706;28;20194;-71
2021/07/20 05:07:53;;;;;;;9.53;5.20;;;15.70;99.90;;;;;;5067204;28;20210;-71
2021/07/20 05:10:21;;;;;;;10.27;5.17;;;15.70;99.90;;;;;;5068190;28;20292;-72
2021/07/20 05:12:49;;;;;;;11.83;4.97;;;15.60;99.90;;;;;;5061947;28;20564;-71
2021/07/20 05:15:17;;;;;;;9.23;4.90;;;15.60;99.90;;;;;;5063844;28;20203;-71
2021/07/20 05:17:45;;;;;;;10.18;4.72;;;15.60;99.90;;;;;;5065715;28;20210;-71
2021/07/20 05:20:14;;;;;;;8.10;4.70;;;15.70;99.90;;;;;;5068346;28;20202;-71
2021/07/20 05:22:44;;;;;;;11.43;5.70;;;15.80;99.90;;;;;;5070790;28;20601;-71
2021/07/20 05:25:12;;;;;;;10.67;5.00;;;15.70;99.90;;;;;;5063781;28;20238;-71
2021/07/20 05:27:42;;;;;;;8.90;5.40;;;15.70;99.90;;;;;;5064167;28;20242;-71
2021/07/20 05:30:10;;;;;;;9.00;5.00;;;15.70;99.90;;;;;;5058807;28;20331;-71
2021/07/20 05:32:40;;;;;;;11.40;5.30;;;15.80;99.90;;;;;;5068334;28;20202;-71
2021/07/20 05:35:10;;;;;;;9.68;5.32;;;15.70;99.90;;;;;;5063862;28;20203;-71
2021/07/20 05:37:39;;;;;;;12.00;5.22;;;15.70;99.90;;;;;;5071191;28;20251;-71
2021/07/20 05:40:11;;;;;;;9.60;4.78;;;15.70;99.90;;;;;;5057520;28;20648;-71
2021/07/20 05:42:38;;;;;;;8.80;5.37;;;15.70;99.90;;;;;;5058096;28;20253;-71
2021/07/20 05:45:07;;;;;;;10.75;5.40;;;15.70;99.90;;;;;;5057559;28;20544;-71
2021/07/20 05:47:36;;;;;;;11.55;5.00;;;15.80;99.90;;;;;;5071124;28;20203;-71
2021/07/20 05:50:05;;;;;;;12.02;6.00;;;15.80;99.90;;;;;;5069970;28;20226;-71
2021/07/20 05:52:35;;;;;;;10.55;5.85;;;15.90;99.90;;;;;;5067545;28;20286;-71
2021/07/20 05:55:04;;;;;;;8.32;5.03;;;16.00;99.90;;;;;;5064036;28;20202;-71
2021/07/20 05:57:35;;;;;;;10.75;5.53;;;16.00;99.90;;;;;;5056166;28;20214;-71
2021/07/20 06:00:02;;;;;;;8.98;5.80;;;16.00;99.90;;;;;;5070243;28;20617;-71
2021/07/20 06:02:32;;;;;;;10.40;5.35;;;16.00;99.90;;;;;;5067178;28;20253;-71
2021/07/20 06:05:01;;;;;;;9.93;5.32;;;16.00;99.90;;;;;;5065577;28;20253;-71
2021/07/20 06:07:30;;;;;;;10.43;5.32;;;16.00;99.90;;;;;;5067202;28;20206;-71
2021/07/20 06:09:58;;;;;;;12.45;6.18;;;16.10;99.90;;;;;;5065337;28;20277;-71
2021/07/20 06:12:26;;;;;;;9.48;5.38;;;16.10;99.90;;;;;;5069815;28;20268;-72
2021/07/20 06:14:56;;;;;;;11.88;5.70;;;16.20;99.90;;;;;;5064498;28;20195;-71
2021/07/20 06:17:24;;;;;;;8.43;4.93;;;16.20;99.90;;;;;;5069206;28;20203;-71
2021/07/20 06:19:51;;;;;;;9.82;5.78;;;16.20;99.90;;;;;;5063138;28;20719;-71
2021/07/20 06:22:24;;;;;;;11.32;5.03;;;16.20;99.90;;;;;;5068127;28;20695;-71
2021/07/20 06:24:53;;;;;;;9.05;5.35;;;16.40;99.90;;;;;;5068759;28;20251;-71
2021/07/20 06:27:22;;;;;;;10.63;5.35;;;16.30;99.90;;;;;;5065079;28;20675;-71
2021/07/20 06:29:55;;;;;;;12.05;5.35;;;16.20;99.90;;;;;;5061144;28;20255;-71
2021/07/20 06:32:24;;;;;;;9.80;6.00;;;16.30;99.90;;;;;;5061508;28;20203;-71
2021/07/20 06:34:51;;;;;;;14.35;5.57;;;16.30;99.90;;;;;;5064578;28;20191;-72
2021/07/20 06:37:20;;;;;;;10.15;5.35;;;16.40;99.90;;;;;;5066350;28;20214;-71
2021/07/20 06:39:48;;;;;;;9.27;4.72;;;16.40;99.90;;;;;;5069979;28;20206;-71
2021/07/20 06:42:17;;;;;;;9.50;5.82;;;16.40;99.90;;;;;;5058163;28;20198;-71
2021/07/20 06:44:45;;;;;;;11.07;5.35;;;16.40;99.90;;;;;;5064983;28;20199;-71
2021/07/20 06:47:16;;;;;;;10.15;5.43;;;16.30;99.90;;;;;;5062137;28;20198;-71
2021/07/20 06:49:46;;;;;;;9.25;5.40;;;16.50;99.90;;;;;;5069347;28;20226;-71
2021/07/20 06:52:16;;;;;;;8.95;5.20;;;16.50;99.90;;;;;;5070940;28;20210;-71
2021/07/20 06:54:43;;;;;;;11.55;5.80;;;16.50;99.90;;;;;;5052069;28;20214;-71
2021/07/20 06:57:14;;;;;;;10.23;5.53;;;16.60;99.90;;;;;;5064247;28;20199;-71
2021/07/20 06:59:43;;;;;;;10.70;5.38;;;16.60;99.90;;;;;;5063441;28;20689;-71
2021/07/20 07:02:19;;;;;;;12.13;5.07;;;16.60;99.90;;;;;;5068750;28;20203;-71
2021/07/20 07:04:57;;;;;;;11.15;5.32;;;16.60;99.90;;;;;;5062606;28;20333;-71
2021/07/20 07:07:26;;;;;;;10.40;5.28;;;16.60;99.90;;;;;;5063735;28;20206;-71
2021/07/20 07:09:54;;;;;;;11.25;5.80;;;16.70;99.90;;;;;;5056027;28;20276;-71
2021/07/20 07:12:23;;;;;;;12.25;5.45;;;16.50;99.90;;;;;;5069212;28;20248;-71
2021/07/20 07:14:52;;;;;;;6.78;4.78;;;16.70;99.90;;;;;;5060623;28;20203;-71
2021/07/20 07:17:19;;;;;;;8.60;5.50;;;16.80;99.90;;;;;;5069686;28;20206;-71
2021/07/20 07:19:51;;;;;;;9.45;5.53;;;16.90;99.90;;;;;;5055913;28;21531;-71
2021/07/20 07:22:19;;;;;;;12.90;5.93;;;17.10;99.90;;;;;;5067517;28;20199;-71
2021/07/20 07:24:47;;;;;;;9.20;5.25;;;17.10;99.90;;;;;;5066857;28;20228;-71
2021/07/20 07:27:16;;;;;;;12.27;5.53;;;17.30;99.90;;;;;;5068655;28;20230;-71
2021/07/20 07:29:44;;;;;;;11.52;5.63;;;17.40;99.90;;;;;;5068921;28;20683;-71
2021/07/20 07:32:11;;;;;;;11.13;5.85;;;17.30;99.90;;;;;;5059293;28;20206;-71
2021/07/20 07:34:39;;;;;;;7.68;5.32;;;17.40;99.90;;;;;;5052645;28;20207;-70
2021/07/20 07:37:09;;;;;;;8.50;5.30;;;17.50;99.90;;;;;;5053488;28;20267;-69
2021/07/20 07:39:37;;;;;;;11.75;5.80;;;17.50;99.90;;;;;;5062527;28;20214;-70
2021/07/20 07:42:05;;;;;;;12.65;6.05;;;17.60;99.90;;;;;;5065156;28;20199;-70
2021/07/20 07:44:34;;;;;;;11.27;5.22;;;17.60;99.90;;;;;;5065914;28;20264;-70
2021/07/20 07:47:01;;;;;;;8.43;5.32;;;17.70;99.90;;;;;;5063337;28;20198;-70
2021/07/20 07:49:29;;;;;;;11.82;5.45;;;17.70;99.90;;;;;;5066269;28;20252;-69
2021/07/20 07:51:56;;;;;;;10.35;5.65;;;17.90;99.90;;;;;;5062268;28;20207;-70
2021/07/20 07:54:25;;;;;;;11.88;5.35;;;17.80;99.90;;;;;;5064037;28;20214;-71
2021/07/20 07:56:53;;;;;;;12.32;6.15;;;17.70;99.90;;;;;;5062627;28;20652;-71
2021/07/20 07:59:23;;;;;;;11.30;5.75;;;17.70;99.90;;;;;;5062256;28;20215;-71
2021/07/20 08:01:56;;;;;;;9.48;5.68;;;17.90;99.90;;;;;;5068832;28;20672;-70
2021/07/20 08:04:27;;;;;;;12.13;5.00;;;17.90;99.90;;;;;;5070446;28;20259;-71
2021/07/20 08:06:57;;;;;;;9.63;5.40;;;18.00;99.90;;;;;;5053800;28;20623;-71
2021/07/20 08:09:29;;;;;;;10.68;5.78;;;18.00;99.90;;;;;;5069214;28;20210;-71
2021/07/20 08:11:59;;;;;;;9.88;5.25;;;18.00;99.90;;;;;;5068280;28;20676;-71
2021/07/20 08:14:26;;;;;;;8.45;4.78;;;18.00;99.90;;;;;;5058586;28;20752;-71
2021/07/20 08:16:58;;;;;;;9.77;5.20;;;18.10;99.90;;;;;;5051644;28;20210;-70
2021/07/20 08:19:27;;;;;;;8.95;5.22;;;18.00;99.90;;;;;;5066091;28;20283;-71
2021/07/20 08:21:58;;;;;;;7.57;4.60;;;17.90;99.90;;;;;;5054483;28;20208;-71
2021/07/20 08:24:27;;;;;;;9.32;5.50;;;18.00;99.90;;;;;;5069969;28;20628;-71
2021/07/20 08:27:03;;;;;;;7.88;4.85;;;17.90;99.90;;;;;;5067015;28;20664;-71
2021/07/20 08:29:35;;;;;;;8.43;5.05;;;17.90;99.90;;;;;;5070373;28;20233;-71
2021/07/20 08:32:09;;;;;;;8.63;5.00;;;17.70;99.90;;;;;;5060376;28;20211;-71
2021/07/20 08:34:41;;;;;;;12.77;5.13;;;17.90;99.90;;;;;;5053348;28;20256;-71
2021/07/20 08:37:10;;;;;;;11.65;5.55;;;17.80;99.90;;;;;;5056775;28;20284;-73
2021/07/20 08:39:41;;;;;;;7.82;4.65;;;18.00;99.90;;;;;;5068742;28;20314;-72
2021/07/20 08:42:19;;;;;;;9.65;4.78;;;18.00;99.90;;;;;;5069065;28;20285;-73
2021/07/20 08:45:02;;;;;;;8.75;4.85;;;18.00;99.90;;;;;;5069298;28;20202;-74
2021/07/20 08:47:50;;;;;;;8.57;4.63;;;17.90;99.90;;;;;;5045863;28;20305;-74
2021/07/20 08:50:23;;;;;;;7.95;4.40;;;18.00;99.90;;;;;;5059153;28;20687;-74
2021/07/20 08:53:11;;;;;;;6.38;4.60;;;18.10;99.90;;;;;;5067733;28;20664;-73
2021/07/20 08:55:42;;;;;;;8.90;4.82;;;18.10;99.90;;;;;;5066642;28;20749;-73
2021/07/20 08:58:17;;;;;;;7.55;4.15;;;18.10;99.90;;;;;;5065554;28;20213;-73
2021/07/20 09:00:48;;;;;;;9.75;4.10;;;18.30;99.90;;;;;;5055238;28;20248;-72
2021/07/20 09:03:39;;;;;;;9.23;4.25;;;18.30;99.90;;;;;;5064297;28;20236;-74
2021/07/20 09:06:11;;;;;;;8.70;4.45;;;18.20;99.90;;;;;;5060033;28;20200;-73
2021/07/20 09:08:42;;;;;;;6.90;3.85;;;18.10;99.90;;;;;;5067232;28;20213;-72
2021/07/20 09:11:15;;;;;;;5.60;3.47;;;18.00;99.90;;;;;;5064324;28;20222;-72
2021/07/20 09:13:50;;;;;;;10.13;3.97;;;17.90;99.90;;;;;;5061049;28;20276;-72
2021/07/20 09:16:29;;;;;;;7.18;4.10;;;17.90;99.90;;;;;;5066316;28;20206;-72
2021/07/20 09:19:02;;;;;;;8.07;4.03;;;18.10;99.90;;;;;;5064841;28;20198;-72
2021/07/20 09:21:32;;;;;;;9.10;4.18;;;18.20;99.90;;;;;;5069932;28;20237;-72
2021/07/20 09:24:09;;;;;;;6.68;4.38;;;18.20;99.90;;;;;;5073240;28;20206;-72
2021/07/20 09:26:43;;;;;;;8.63;3.88;;;18.20;99.90;;;;;;5063392;28;20292;-73
2021/07/20 09:29:16;;;;;;;7.95;4.82;;;18.00;99.90;;;;;;5072908;28;20693;-73
2021/07/20 09:32:03;;;;;;;9.48;4.45;;;18.10;99.90;;;;;;5066533;28;20680;-73
2021/07/20 09:34:39;;;;;;;9.48;3.85;;;18.30;99.90;;;;;;5058529;28;20289;-73
2021/07/20 09:37:09;;;;;;;7.88;4.35;;;18.40;99.90;;;;;;5042812;28;20207;-73
2021/07/20 09:39:48;;;;;;;5.65;4.40;;;18.40;99.90;;;;;;5067360;28;20218;-74
2021/07/20 09:42:30;;;;;;;6.88;3.38;;;18.50;99.90;;;;;;5072747;28;20206;-74
2021/07/20 09:45:04;;;;;;;6.63;3.90;;;18.70;99.90;;;;;;5072748;28;20221;-73
2021/07/20 09:47:58;;;;;;;5.28;3.40;;;18.90;99.90;;;;;;5072388;28;20198;-73
2021/07/20 09:50:28;;;;;;;6.30;3.00;;;18.90;99.90;;;;;;5067371;28;20223;-73
2021/07/20 09:53:24;;;;;;;8.40;3.08;;;19.00;99.90;;;;;;5064529;28;20275;-74
2021/07/20 09:56:14;;;;;;;5.10;2.88;;;19.00;99.90;;;;;;5073142;28;20234;-73
2021/07/20 09:58:52;;;;;;;5.78;3.72;;;19.20;99.90;;;;;;5072172;28;20217;-74
2021/07/20 10:01:25;;;;;;;5.45;3.55;;;19.20;99.90;;;;;;5072950;28;20229;-74
2021/07/20 10:04:00;;;;;;;5.03;3.25;;;19.20;99.90;;;;;;5072019;28;20206;-73
2021/07/20 10:06:38;;;;;;;5.97;3.40;;;19.10;99.90;;;;;;5072407;28;20263;-74
2021/07/20 10:09:07;;;;;;;4.45;3.13;;;19.00;99.90;;;;;;5071176;28;20273;-75
2021/07/20 10:11:43;;;;;;;6.22;3.38;;;19.00;99.90;;;;;;5055705;28;20226;-74
2021/07/20 10:14:30;;;;;;;5.43;3.10;;;19.00;99.90;;;;;;5072178;28;20275;-74
2021/07/20 10:17:09;;;;;;;5.00;3.30;;;19.00;99.90;;;;;;5059969;28;20202;-74
2021/07/20 10:19:39;;;;;;;5.82;3.13;;;19.20;99.90;;;;;;5056614;28;20202;-74
2021/07/20 10:22:11;;;;;;;5.38;3.20;;;19.30;99.90;;;;;;5060173;28;20240;-74
2021/07/20 10:24:44;;;;;;;9.13;3.35;;;19.20;99.90;;;;;;5072371;28;20202;-72
2021/07/20 10:27:15;;;;;;;6.22;3.25;;;19.30;99.90;;;;;;5068954;28;20239;-72
2021/07/20 10:29:52;;;;;;;3.88;3.45;;;19.30;99.90;;;;;;5066226;28;20198;-72
2021/07/20 10:32:24;;;;;;;4.88;3.67;;;19.40;99.90;;;;;;5071530;28;20280;-72
2021/07/20 10:34:56;;;;;;;7.68;3.03;;;19.30;99.90;;;;;;5058177;28;20327;-72
2021/07/20 10:37:29;;;;;;;4.05;3.17;;;19.30;99.90;;;;;;5071899;28;20198;-72
2021/07/20 10:40:01;;;;;;;5.88;3.30;;;19.10;99.90;;;;;;5068579;28;20608;-72
2021/07/20 10:42:34;;;;;;;4.97;2.90;;;19.20;99.90;;;;;;5050434;28;20207;-71
2021/07/20 10:45:07;;;;;;;6.75;3.10;;;19.50;99.90;;;;;;5065830;28;20694;-71
2021/07/20 10:47:39;;;;;;;3.47;2.80;;;19.30;99.90;;;;;;5071674;28;20256;-71
2021/07/20 10:50:11;;;;;;;4.60;3.20;;;19.50;99.90;;;;;;5071976;28;20202;-72
2021/07/20 10:52:52;;;;;;;4.75;2.80;;;19.60;99.90;;;;;;5071473;28;20267;-71
2021/07/20 10:55:25;;;;;;;4.10;2.88;;;19.70;99.90;;;;;;5071262;28;20202;-72
2021/07/20 10:58:00;;;;;;;6.38;2.75;;;20.00;99.90;;;;;;5057958;28;20206;-72
2021/07/20 11:00:43;;;;;;;4.85;2.45;;;19.90;99.90;;;;;;5071721;28;20198;-72
2021/07/20 11:03:21;;;;;;;5.75;3.10;;;20.00;99.90;;;;;;5071147;28;20206;-72
2021/07/20 11:05:51;;;;;;;3.25;2.65;;;19.90;99.90;;;;;;5066895;28;20222;-71
2021/07/20 11:08:19;;;;;;;5.85;2.88;;;19.90;99.90;;;;;;5071821;28;20202;-71
2021/07/20 11:10:50;;;;;;;4.43;2.92;;;19.90;99.90;;;;;;5071566;28;20253;-71
2021/07/20 11:13:21;;;;;;;3.10;2.80;;;19.80;99.90;;;;;;5071576;28;20206;-71
2021/07/20 11:15:53;;;;;;;3.30;2.60;;;19.90;99.90;;;;;;5070941;28;20624;-72
2021/07/20 11:18:24;;;;;;;3.65;3.00;;;20.00;99.90;;;;;;5071378;28;20612;-71
2021/07/20 11:20:54;;;;;;;4.75;2.83;;;20.30;99.90;;;;;;5069634;28;20194;-72
2021/07/20 11:23:23;;;;;;;4.47;2.85;;;20.20;99.90;;;;;;5064413;28;20203;-72
2021/07/20 11:25:51;;;;;;;3.70;2.70;;;20.30;99.90;;;;;;5062938;28;20198;-72
2021/07/20 11:28:19;;;;;;;6.82;3.45;;;20.50;99.90;;;;;;5066508;28;20566;-72
2021/07/20 11:30:52;;;;;;;5.22;3.20;;;20.40;99.90;;;;;;5062754;28;20606;-71
2021/07/20 11:33:25;;;;;;;4.25;3.05;;;20.50;99.90;;;;;;5056529;28;20214;-71
2021/07/20 11:35:57;;;;;;;5.00;3.10;;;21.00;99.90;;;;;;5065975;28;20194;-72
2021/07/20 11:38:27;;;;;;;5.68;2.95;;;20.80;99.90;;;;;;5070810;28;20253;-71
2021/07/20 11:41:01;;;;;;;5.13;3.55;;;20.90;99.90;;;;;;5069077;28;20224;-71
2021/07/20 11:43:33;;;;;;;3.58;2.97;;;21.10;99.90;;;;;;5070744;28;20240;-71
2021/07/20 11:46:05;;;;;;;5.85;3.20;;;21.20;99.90;;;;;;5070445;28;20202;-72
2021/07/20 11:48:43;;;;;;;4.90;3.38;;;21.00;99.90;;;;;;5070606;28;20245;-71
2021/07/20 11:51:19;;;;;;;3.72;2.83;;;20.40;99.90;;;;;;5069077;28;20210;-72
2021/07/20 11:53:55;;;;;;;3.42;3.13;;;20.60;99.90;;;;;;5070169;28;20212;-72
2021/07/20 11:56:27;;;;;;;7.00;3.03;;;20.70;99.90;;;;;;5068387;28;20255;-72
2021/07/20 11:59:43;;;;;;;5.20;3.22;;;20.40;99.90;;;;;;5068592;28;20198;-72
2021/07/20 12:02:38;;;;;;;62.85;6.82;;;20.70;99.90;;;;;;5071306;28;20250;-72
2021/07/20 12:05:21;;;;;;;6.07;3.65;;;20.60;99.90;;;;;;5070245;28;20206;-72
2021/07/20 12:07:52;;;;;;;8.07;3.33;;;20.40;99.90;;;;;;5066702;28;20565;-71
2021/07/20 12:10:38;;;;;;;4.15;2.88;;;20.40;99.90;;;;;;5067362;28;20213;-71
2021/07/20 12:13:13;;;;;;;5.80;3.20;;;20.80;99.90;;;;;;5070130;28;20202;-72
2021/07/20 12:15:41;;;;;;;4.18;2.90;;;20.90;99.90;;;;;;5069593;28;20663;-72
2021/07/20 12:18:09;;;;;;;6.72;3.85;;;20.40;99.90;;;;;;5070531;28;20293;-72
2021/07/20 12:20:37;;;;;;;3.50;3.20;;;20.60;99.90;;;;;;5069907;28;20194;-71
2021/07/20 12:23:05;;;;;;;5.57;3.35;;;21.00;99.90;;;;;;5063978;28;20769;-74
2021/07/20 12:25:32;;;;;;;5.07;3.05;;;20.80;99.90;;;;;;5063129;28;20268;-74
2021/07/20 12:28:01;;;;;;;3.72;3.17;;;20.80;99.90;;;;;;5053950;28;20207;-72
2021/07/20 12:30:30;;;;;;;7.57;3.05;;;20.70;99.90;;;;;;5061797;28;20710;-72
2021/07/20 12:32:59;;;;;;;10.55;3.70;;;20.60;99.90;;;;;;5062566;28;20214;-72
2021/07/20 12:35:30;;;;;;;9.95;3.22;;;20.70;99.90;;;;;;5063998;28;20218;-73
2021/07/20 12:38:02;;;;;;;12.02;3.88;;;20.90;99.90;;;;;;5065744;28;20249;-72
2021/07/20 12:40:29;;;;;;;4.47;3.03;;;20.90;99.90;;;;;;5065348;28;20203;-72
2021/07/20 12:43:07;;;;;;;5.57;3.28;;;21.00;99.90;;;;;;5055377;28;20665;-72
2021/07/20 12:45:35;;;;;;;5.70;3.35;;;20.80;99.90;;;;;;5054804;28;20722;-72
2021/07/20 12:48:03;;;;;;;6.00;3.92;;;20.90;99.90;;;;;;5068526;28;20211;-72
2021/07/20 12:50:31;;;;;;;5.15;3.22;;;21.60;99.90;;;;;;5068027;28;20536;-73
2021/07/20 12:52:59;;;;;;;3.97;3.25;;;21.60;99.90;;;;;;5068182;28;20218;-73
2021/07/20 12:55:26;;;;;;;4.10;3.05;;;21.20;99.90;;;;;;5071787;28;20230;-72
2021/07/20 12:57:55;;;;;;;3.65;3.15;;;21.60;99.90;;;;;;5067251;28;21035;-73
2021/07/20 13:00:24;;;;;;;5.15;3.30;;;21.30;99.90;;;;;;5065990;28;20206;-73
2021/07/20 13:02:52;;;;;;;5.55;3.00;;;21.50;99.90;;;;;;5066039;28;20263;-73
2021/07/20 13:05:22;;;;;;;5.32;2.95;;;21.70;99.90;;;;;;5067380;28;20201;-73